sensor_id;sensor_type;location;lat;lon;timestamp;pressure;altitude;pressure_sealevel;temperature
48003;BMP280;33768;48.578;11.574;2022-12-29T00:02:01;96257.63;;;4.71
48003;BMP280;33768;48.578;11.574;2022-12-29T00:05:05;96252.69;;;4.75
48003;BMP280;33768;48.578;11.574;2022-12-29T00:08:10;96254.19;;;4.87
48003;BMP280;33768;48.578;11.574;2022-12-29T00:11:19;96259.59;;;4.93
48003;BMP280;33768;48.578;11.574;2022-12-29T00:14:24;96250.75;;;4.92
48003;BMP280;33768;48.578;11.574;2022-12-29T00:17:47;96247.53;;;4.88
48003;BMP280;33768;48.578;11.574;2022-12-29T00:20:54;96246.09;;;4.76
48003;BMP280;33768;48.578;11.574;2022-12-29T00:24:21;96246.06;;;4.66
48003;BMP280;33768;48.578;11.574;2022-12-29T00:27:32;96246.78;;;4.61
48003;BMP280;33768;48.578;11.574;2022-12-29T00:30:59;96247.28;;;4.54
48003;BMP280;33768;48.578;11.574;2022-12-29T00:34:22;96241.84;;;4.48
48003;BMP280;33768;48.578;11.574;2022-12-29T00:37:46;96236.69;;;4.45
48003;BMP280;33768;48.578;11.574;2022-12-29T00:41:12;96241.13;;;4.48
48003;BMP280;33768;48.578;11.574;2022-12-29T00:44:34;96243.56;;;4.46
48003;BMP280;33768;48.578;11.574;2022-12-29T00:47:39;96244.53;;;4.43
48003;BMP280;33768;48.578;11.574;2022-12-29T00:50:43;96247.03;;;4.41
48003;BMP280;33768;48.578;11.574;2022-12-29T00:53:47;96243.34;;;4.38
48003;BMP280;33768;48.578;11.574;2022-12-29T00:56:52;96244.28;;;4.35
48003;BMP280;33768;48.578;11.574;2022-12-29T00:59:56;96248.47;;;4.31
48003;BMP280;33768;48.578;11.574;2022-12-29T01:03:00;96239.13;;;4.32
48003;BMP280;33768;48.578;11.574;2022-12-29T01:06:09;96238.16;;;4.46
48003;BMP280;33768;48.578;11.574;2022-12-29T01:09:15;96240.66;;;4.66
48003;BMP280;33768;48.578;11.574;2022-12-29T01:12:38;96240.41;;;4.85
48003;BMP280;33768;48.578;11.574;2022-12-29T01:15:51;96231.56;;;4.96
48003;BMP280;33768;48.578;11.574;2022-12-29T01:18:56;96230.34;;;5.07
48003;BMP280;33768;48.578;11.574;2022-12-29T01:22:01;96227.63;;;5.13
48003;BMP280;33768;48.578;11.574;2022-12-29T01:25:06;96232.75;;;5.16
48003;BMP280;33768;48.578;11.574;2022-12-29T01:28:10;96227.56;;;5.45
48003;BMP280;33768;48.578;11.574;2022-12-29T01:31:16;96231.19;;;5.64
48003;BMP280;33768;48.578;11.574;2022-12-29T01:34:20;96235.16;;;5.63
48003;BMP280;33768;48.578;11.574;2022-12-29T01:37:24;96240.81;;;5.54
48003;BMP280;33768;48.578;11.574;2022-12-29T01:40:28;96231.25;;;5.42
48003;BMP280;33768;48.578;11.574;2022-12-29T01:43:49;96235.97;;;5.26
48003;BMP280;33768;48.578;11.574;2022-12-29T01:46:53;96230.59;;;5.09
48003;BMP280;33768;48.578;11.574;2022-12-29T01:50:03;96223.44;;;4.96
48003;BMP280;33768;48.578;11.574;2022-12-29T01:53:34;96215.81;;;4.83
48003;BMP280;33768;48.578;11.574;2022-12-29T01:56:40;96227.38;;;4.78
48003;BMP280;33768;48.578;11.574;2022-12-29T01:59:55;96213.38;;;4.80
48003;BMP280;33768;48.578;11.574;2022-12-29T02:03:00;96199.38;;;4.92
48003;BMP280;33768;48.578;11.574;2022-12-29T02:06:12;96199.34;;;5.08
48003;BMP280;33768;48.578;11.574;2022-12-29T02:09:19;96200.06;;;5.20
48003;BMP280;33768;48.578;11.574;2022-12-29T02:12:23;96199.03;;;5.39
48003;BMP280;33768;48.578;11.574;2022-12-29T02:18:52;96195.66;;;5.89
48003;BMP280;33768;48.578;11.574;2022-12-29T02:28:53;96198.81;;;6.44
48003;BMP280;33768;48.578;11.574;2022-12-29T02:32:06;96189.84;;;6.59
48003;BMP280;33768;48.578;11.574;2022-12-29T02:35:20;96187.47;;;6.80
48003;BMP280;33768;48.578;11.574;2022-12-29T02:41:32;96192.00;;;6.95
48003;BMP280;33768;48.578;11.574;2022-12-29T02:44:46;96191.19;;;7.06
48003;BMP280;33768;48.578;11.574;2022-12-29T02:51:36;96174.00;;;7.21
48003;BMP280;33768;48.578;11.574;2022-12-29T02:54:43;96176.84;;;7.34
48003;BMP280;33768;48.578;11.574;2022-12-29T02:57:48;96178.25;;;7.41
48003;BMP280;33768;48.578;11.574;2022-12-29T03:04:31;96168.06;;;7.47
48003;BMP280;33768;48.578;11.574;2022-12-29T03:08:04;96165.59;;;7.48
48003;BMP280;33768;48.578;11.574;2022-12-29T03:11:14;96165.94;;;7.58
48003;BMP280;33768;48.578;11.574;2022-12-29T03:14:44;96162.97;;;7.61
48003;BMP280;33768;48.578;11.574;2022-12-29T03:18:15;96158.25;;;7.62
48003;BMP280;33768;48.578;11.574;2022-12-29T03:25:05;96161.16;;;7.69
48003;BMP280;33768;48.578;11.574;2022-12-29T03:28:18;96157.91;;;7.71
48003;BMP280;33768;48.578;11.574;2022-12-29T03:31:25;96154.97;;;7.69
48003;BMP280;33768;48.578;11.574;2022-12-29T03:34:31;96157.69;;;7.69
48003;BMP280;33768;48.578;11.574;2022-12-29T03:41:13;96142.28;;;7.77
48003;BMP280;33768;48.578;11.574;2022-12-29T03:44:18;96148.38;;;7.82
48003;BMP280;33768;48.578;11.574;2022-12-29T03:47:24;96154.69;;;7.90
48003;BMP280;33768;48.578;11.574;2022-12-29T03:50:28;96152.44;;;7.94
48003;BMP280;33768;48.578;11.574;2022-12-29T03:53:32;96151.16;;;7.95
48003;BMP280;33768;48.578;11.574;2022-12-29T03:56:38;96147.00;;;7.94
48003;BMP280;33768;48.578;11.574;2022-12-29T03:59:42;96150.66;;;7.97
48003;BMP280;33768;48.578;11.574;2022-12-29T04:02:46;96146.69;;;7.98
48003;BMP280;33768;48.578;11.574;2022-12-29T04:05:56;96147.22;;;7.96
48003;BMP280;33768;48.578;11.574;2022-12-29T04:09:00;96151.16;;;7.95
48003;BMP280;33768;48.578;11.574;2022-12-29T04:12:07;96137.16;;;7.91
48003;BMP280;33768;48.578;11.574;2022-12-29T04:15:13;96138.91;;;7.89
48003;BMP280;33768;48.578;11.574;2022-12-29T04:18:17;96129.19;;;7.93
48003;BMP280;33768;48.578;11.574;2022-12-29T04:21:22;96128.19;;;7.96
48003;BMP280;33768;48.578;11.574;2022-12-29T04:24:27;96137.09;;;7.97
48003;BMP280;33768;48.578;11.574;2022-12-29T04:27:32;96131.13;;;7.98
48003;BMP280;33768;48.578;11.574;2022-12-29T04:30:53;96125.91;;;8.00
48003;BMP280;33768;48.578;11.574;2022-12-29T04:34:00;96123.19;;;8.00
48003;BMP280;33768;48.578;11.574;2022-12-29T04:37:05;96123.25;;;7.95
48003;BMP280;33768;48.578;11.574;2022-12-29T04:40:09;96127.81;;;7.87
48003;BMP280;33768;48.578;11.574;2022-12-29T04:43:14;96126.13;;;7.84
48003;BMP280;33768;48.578;11.574;2022-12-29T04:46:37;96132.56;;;7.81
48003;BMP280;33768;48.578;11.574;2022-12-29T04:49:46;96124.56;;;7.88
48003;BMP280;33768;48.578;11.574;2022-12-29T04:53:20;96133.47;;;7.89
48003;BMP280;33768;48.578;11.574;2022-12-29T04:56:24;96129.81;;;7.86
48003;BMP280;33768;48.578;11.574;2022-12-29T04:59:28;96128.09;;;7.83
48003;BMP280;33768;48.578;11.574;2022-12-29T05:02:36;96126.00;;;7.77
48003;BMP280;33768;48.578;11.574;2022-12-29T05:05:41;96134.63;;;7.75
48003;BMP280;33768;48.578;11.574;2022-12-29T05:08:45;96132.16;;;7.77
48003;BMP280;33768;48.578;11.574;2022-12-29T05:11:50;96129.66;;;7.79
48003;BMP280;33768;48.578;11.574;2022-12-29T05:14:54;96134.34;;;7.78
48003;BMP280;33768;48.578;11.574;2022-12-29T05:17:58;96136.13;;;7.76
48003;BMP280;33768;48.578;11.574;2022-12-29T05:21:02;96131.63;;;7.78
48003;BMP280;33768;48.578;11.574;2022-12-29T05:24:07;96132.56;;;7.81
48003;BMP280;33768;48.578;11.574;2022-12-29T05:27:11;96129.34;;;7.82
48003;BMP280;33768;48.578;11.574;2022-12-29T05:30:35;96125.19;;;7.81
48003;BMP280;33768;48.578;11.574;2022-12-29T05:33:39;96124.16;;;7.84
48003;BMP280;33768;48.578;11.574;2022-12-29T05:36:43;96118.63;;;7.90
48003;BMP280;33768;48.578;11.574;2022-12-29T05:39:49;96123.50;;;7.97
48003;BMP280;33768;48.578;11.574;2022-12-29T05:42:53;96118.94;;;8.05
48003;BMP280;33768;48.578;11.574;2022-12-29T05:46:16;96119.44;;;8.03
48003;BMP280;33768;48.578;11.574;2022-12-29T05:49:40;96114.94;;;8.06
48003;BMP280;33768;48.578;11.574;2022-12-29T05:53:05;96123.28;;;8.13
48003;BMP280;33768;48.578;11.574;2022-12-29T05:56:09;96125.72;;;8.16
48003;BMP280;33768;48.578;11.574;2022-12-29T05:59:13;96133.94;;;8.29
48003;BMP280;33768;48.578;11.574;2022-12-29T06:02:17;96133.41;;;8.31
48003;BMP280;33768;48.578;11.574;2022-12-29T06:05:22;96147.66;;;8.18
48003;BMP280;33768;48.578;11.574;2022-12-29T06:08:26;96131.00;;;8.09
48003;BMP280;33768;48.578;11.574;2022-12-29T06:11:31;96125.34;;;8.07
48003;BMP280;33768;48.578;11.574;2022-12-29T06:14:36;96126.13;;;8.02
48003;BMP280;33768;48.578;11.574;2022-12-29T06:17:41;96137.09;;;7.97
48003;BMP280;33768;48.578;11.574;2022-12-29T06:20:46;96128.41;;;7.98
48003;BMP280;33768;48.578;11.574;2022-12-29T06:23:50;96128.31;;;8.04
48003;BMP280;33768;48.578;11.574;2022-12-29T06:26:54;96129.97;;;8.12
48003;BMP280;33768;48.578;11.574;2022-12-29T06:29:59;96129.44;;;8.13
48003;BMP280;33768;48.578;11.574;2022-12-29T06:33:03;96136.59;;;8.16
48003;BMP280;33768;48.578;11.574;2022-12-29T06:36:07;96136.06;;;8.18
48003;BMP280;33768;48.578;11.574;2022-12-29T06:39:12;96138.78;;;8.18
48003;BMP280;33768;48.578;11.574;2022-12-29T06:42:17;96138.84;;;8.12
48003;BMP280;33768;48.578;11.574;2022-12-29T06:45:27;96147.16;;;8.02
48003;BMP280;33768;48.578;11.574;2022-12-29T06:48:31;96145.50;;;7.93
48003;BMP280;33768;48.578;11.574;2022-12-29T06:51:35;96138.75;;;7.81
48003;BMP280;33768;48.578;11.574;2022-12-29T06:54:39;96147.72;;;7.77
48003;BMP280;33768;48.578;11.574;2022-12-29T06:57:43;96146.31;;;7.70
48003;BMP280;33768;48.578;11.574;2022-12-29T07:00:48;96151.56;;;7.63
48003;BMP280;33768;48.578;11.574;2022-12-29T07:03:52;96149.00;;;7.52
48003;BMP280;33768;48.578;11.574;2022-12-29T07:06:56;96148.09;;;7.44
48003;BMP280;33768;48.578;11.574;2022-12-29T07:10:00;96157.84;;;7.34
48003;BMP280;33768;48.578;11.574;2022-12-29T07:13:04;96157.38;;;7.30
48003;BMP280;33768;48.578;11.574;2022-12-29T07:16:10;96162.59;;;7.28
48003;BMP280;33768;48.578;11.574;2022-12-29T07:19:14;96164.13;;;7.24
48003;BMP280;33768;48.578;11.574;2022-12-29T07:22:18;96165.41;;;7.17
48003;BMP280;33768;48.578;11.574;2022-12-29T07:25:22;96170.59;;;7.16
48003;BMP280;33768;48.578;11.574;2022-12-29T07:28:26;96166.66;;;7.17
48003;BMP280;33768;48.578;11.574;2022-12-29T07:31:31;96161.72;;;7.15
48003;BMP280;33768;48.578;11.574;2022-12-29T07:34:34;96154.84;;;7.14
48003;BMP280;33768;48.578;11.574;2022-12-29T07:37:39;96155.81;;;7.17
48003;BMP280;33768;48.578;11.574;2022-12-29T07:40:43;96159.41;;;7.24
48003;BMP280;33768;48.578;11.574;2022-12-29T07:43:47;96157.59;;;7.32
48003;BMP280;33768;48.578;11.574;2022-12-29T07:47:21;96156.97;;;7.45
48003;BMP280;33768;48.578;11.574;2022-12-29T07:50:26;96155.16;;;7.52
48003;BMP280;33768;48.578;11.574;2022-12-29T07:53:30;96147.16;;;7.60
48003;BMP280;33768;48.578;11.574;2022-12-29T07:56:34;96150.50;;;7.71
48003;BMP280;33768;48.578;11.574;2022-12-29T07:59:38;96140.94;;;7.83
48003;BMP280;33768;48.578;11.574;2022-12-29T08:02:42;96150.38;;;8.00
48003;BMP280;33768;48.578;11.574;2022-12-29T08:05:47;96141.63;;;8.25
48003;BMP280;33768;48.578;11.574;2022-12-29T08:08:51;96139.25;;;8.53
48003;BMP280;33768;48.578;11.574;2022-12-29T08:11:55;96145.16;;;8.70
48003;BMP280;33768;48.578;11.574;2022-12-29T08:14:59;96155.88;;;8.80
48003;BMP280;33768;48.578;11.574;2022-12-29T08:18:03;96149.06;;;8.87
48003;BMP280;33768;48.578;11.574;2022-12-29T08:21:07;96156.22;;;8.90
48003;BMP280;33768;48.578;11.574;2022-12-29T08:24:11;96167.53;;;8.94
48003;BMP280;33768;48.578;11.574;2022-12-29T08:27:15;96172.03;;;9.04
48003;BMP280;33768;48.578;11.574;2022-12-29T08:30:19;96172.63;;;9.28
48003;BMP280;33768;48.578;11.574;2022-12-29T08:33:24;96168.34;;;9.45
48003;BMP280;33768;48.578;11.574;2022-12-29T08:36:27;96181.44;;;9.60
48003;BMP280;33768;48.578;11.574;2022-12-29T08:39:32;96176.41;;;9.76
48003;BMP280;33768;48.578;11.574;2022-12-29T08:42:36;96166.25;;;9.90
48003;BMP280;33768;48.578;11.574;2022-12-29T08:45:40;96170.09;;;10.07
48003;BMP280;33768;48.578;11.574;2022-12-29T08:48:44;96172.44;;;10.03
48003;BMP280;33768;48.578;11.574;2022-12-29T08:51:49;96182.06;;;10.04
48003;BMP280;33768;48.578;11.574;2022-12-29T08:54:53;96196.66;;;10.06
48003;BMP280;33768;48.578;11.574;2022-12-29T08:57:58;96200.81;;;10.07
48003;BMP280;33768;48.578;11.574;2022-12-29T09:01:02;96200.91;;;10.28
48003;BMP280;33768;48.578;11.574;2022-12-29T09:04:07;96197.97;;;10.38
48003;BMP280;33768;48.578;11.574;2022-12-29T09:07:11;96189.84;;;10.46
48003;BMP280;33768;48.578;11.574;2022-12-29T09:10:15;96190.97;;;10.50
48003;BMP280;33768;48.578;11.574;2022-12-29T09:13:20;96182.41;;;10.46
48003;BMP280;33768;48.578;11.574;2022-12-29T09:16:24;96191.09;;;10.45
48003;BMP280;33768;48.578;11.574;2022-12-29T09:19:28;96181.75;;;10.40
48003;BMP280;33768;48.578;11.574;2022-12-29T09:22:34;96181.38;;;10.36
48003;BMP280;33768;48.578;11.574;2022-12-29T09:25:39;96189.88;;;10.33
48003;BMP280;33768;48.578;11.574;2022-12-29T09:28:43;96174.97;;;10.34
48003;BMP280;33768;48.578;11.574;2022-12-29T09:31:48;96187.25;;;10.28
48003;BMP280;33768;48.578;11.574;2022-12-29T09:34:52;96188.75;;;10.29
48003;BMP280;33768;48.578;11.574;2022-12-29T09:37:56;96195.97;;;10.26
48003;BMP280;33768;48.578;11.574;2022-12-29T09:41:10;96192.72;;;10.28
48003;BMP280;33768;48.578;11.574;2022-12-29T09:47:27;96192.19;;;10.29
48003;BMP280;33768;48.578;11.574;2022-12-29T09:50:34;96187.69;;;10.31
48003;BMP280;33768;48.578;11.574;2022-12-29T09:53:49;96194.47;;;10.38
48003;BMP280;33768;48.578;11.574;2022-12-29T09:56:55;96179.66;;;10.46
48003;BMP280;33768;48.578;11.574;2022-12-29T10:00:05;96187.72;;;10.52
48003;BMP280;33768;48.578;11.574;2022-12-29T10:03:19;96172.16;;;10.60
48003;BMP280;33768;48.578;11.574;2022-12-29T10:20:23;96163.53;;;10.89
48003;BMP280;33768;48.578;11.574;2022-12-29T10:23:42;96163.06;;;10.97
48003;BMP280;33768;48.578;11.574;2022-12-29T10:26:51;96165.72;;;11.10
48003;BMP280;33768;48.578;11.574;2022-12-29T10:29:56;96144.84;;;11.20
48003;BMP280;33768;48.578;11.574;2022-12-29T10:33:06;96146.03;;;11.32
48003;BMP280;33768;48.578;11.574;2022-12-29T10:36:23;96145.63;;;11.48
48003;BMP280;33768;48.578;11.574;2022-12-29T10:39:35;96137.41;;;11.76
48003;BMP280;33768;48.578;11.574;2022-12-29T10:42:43;96130.06;;;11.98
48003;BMP280;33768;48.578;11.574;2022-12-29T10:45:49;96125.56;;;12.16
48003;BMP280;33768;48.578;11.574;2022-12-29T10:48:53;96124.13;;;12.22
48003;BMP280;33768;48.578;11.574;2022-12-29T10:52:00;96118.31;;;12.33
48003;BMP280;33768;48.578;11.574;2022-12-29T10:55:21;96123.44;;;12.36
48003;BMP280;33768;48.578;11.574;2022-12-29T10:58:28;96120.75;;;12.51
48003;BMP280;33768;48.578;11.574;2022-12-29T11:01:39;96119.06;;;12.41
48003;BMP280;33768;48.578;11.574;2022-12-29T11:08:39;96124.34;;;12.31
48003;BMP280;33768;48.578;11.574;2022-12-29T11:11:45;96129.59;;;12.29
48003;BMP280;33768;48.578;11.574;2022-12-29T11:15:12;96132.88;;;12.20
48003;BMP280;33768;48.578;11.574;2022-12-29T11:21:33;96117.31;;;12.08
48003;BMP280;33768;48.578;11.574;2022-12-29T11:24:44;96121.69;;;12.04
48003;BMP280;33768;48.578;11.574;2022-12-29T11:28:04;96119.84;;;11.99
48003;BMP280;33768;48.578;11.574;2022-12-29T11:31:17;96120.72;;;11.94
48003;BMP280;33768;48.578;11.574;2022-12-29T11:34:24;96114.00;;;11.95
48003;BMP280;33768;48.578;11.574;2022-12-29T11:37:36;96116.00;;;12.02
48003;BMP280;33768;48.578;11.574;2022-12-29T11:40:43;96108.56;;;12.02
48003;BMP280;33768;48.578;11.574;2022-12-29T11:43:47;96107.69;;;12.15
48003;BMP280;33768;48.578;11.574;2022-12-29T11:46:52;96100.75;;;12.14
48003;BMP280;33768;48.578;11.574;2022-12-29T11:49:59;96101.13;;;12.18
48003;BMP280;33768;48.578;11.574;2022-12-29T11:53:13;96092.34;;;12.12
48003;BMP280;33768;48.578;11.574;2022-12-29T11:56:31;96098.97;;;12.23
48003;BMP280;33768;48.578;11.574;2022-12-29T11:59:39;96089.16;;;12.35
48003;BMP280;33768;48.578;11.574;2022-12-29T12:02:53;96103.59;;;12.50
48003;BMP280;33768;48.578;11.574;2022-12-29T12:06:02;96109.81;;;12.66
48003;BMP280;33768;48.578;11.574;2022-12-29T12:09:13;96087.72;;;12.71
48003;BMP280;33768;48.578;11.574;2022-12-29T12:12:29;96093.75;;;12.70
48003;BMP280;33768;48.578;11.574;2022-12-29T12:15:46;96088.13;;;12.75
48003;BMP280;33768;48.578;11.574;2022-12-29T12:22:25;96090.50;;;12.79
48003;BMP280;33768;48.578;11.574;2022-12-29T12:25:37;96092.16;;;12.89
48003;BMP280;33768;48.578;11.574;2022-12-29T12:28:50;96084.84;;;12.91
48003;BMP280;33768;48.578;11.574;2022-12-29T12:32:11;96089.03;;;13.00
48003;BMP280;33768;48.578;11.574;2022-12-29T12:35:36;96083.38;;;13.20
48003;BMP280;33768;48.578;11.574;2022-12-29T12:42:06;96083.00;;;13.38
48003;BMP280;33768;48.578;11.574;2022-12-29T12:45:31;96074.22;;;13.40
48003;BMP280;33768;48.578;11.574;2022-12-29T12:55:45;96085.75;;;13.23
48003;BMP280;33768;48.578;11.574;2022-12-29T13:09:08;96073.34;;;13.00
48003;BMP280;33768;48.578;11.574;2022-12-29T13:15:43;96069.50;;;12.81
48003;BMP280;33768;48.578;11.574;2022-12-29T13:22:43;96071.69;;;12.68
48003;BMP280;33768;48.578;11.574;2022-12-29T13:25:59;96073.50;;;12.58
48003;BMP280;33768;48.578;11.574;2022-12-29T13:29:18;96073.47;;;12.50
48003;BMP280;33768;48.578;11.574;2022-12-29T13:35:58;96061.78;;;12.43
48003;BMP280;33768;48.578;11.574;2022-12-29T13:42:52;96072.16;;;12.29
48003;BMP280;33768;48.578;11.574;2022-12-29T13:46:07;96070.16;;;12.22
48003;BMP280;33768;48.578;11.574;2022-12-29T13:49:22;96069.75;;;12.18
48003;BMP280;33768;48.578;11.574;2022-12-29T13:52:37;96076.84;;;12.14
48003;BMP280;33768;48.578;11.574;2022-12-29T13:55:55;96068.81;;;12.09
48003;BMP280;33768;48.578;11.574;2022-12-29T13:59:26;96077.91;;;12.04
48003;BMP280;33768;48.578;11.574;2022-12-29T14:06:14;96075.50;;;11.93
48003;BMP280;33768;48.578;11.574;2022-12-29T14:09:47;96080.44;;;11.87
48003;BMP280;33768;48.578;11.574;2022-12-29T14:13:00;96077.81;;;11.82
48003;BMP280;33768;48.578;11.574;2022-12-29T14:16:06;96084.53;;;11.73
48003;BMP280;33768;48.578;11.574;2022-12-29T14:19:18;96080.31;;;11.65
48003;BMP280;33768;48.578;11.574;2022-12-29T14:22:26;96077.53;;;11.57
48003;BMP280;33768;48.578;11.574;2022-12-29T14:25:54;96081.16;;;11.53
48003;BMP280;33768;48.578;11.574;2022-12-29T14:35:44;96089.97;;;11.38
48003;BMP280;33768;48.578;11.574;2022-12-29T14:38:53;96091.59;;;11.34
48003;BMP280;33768;48.578;11.574;2022-12-29T14:45:29;96098.41;;;11.20
48003;BMP280;33768;48.578;11.574;2022-12-29T14:48:39;96095.84;;;11.15
48003;BMP280;33768;48.578;11.574;2022-12-29T14:51:45;96096.91;;;11.12
48003;BMP280;33768;48.578;11.574;2022-12-29T14:54:54;96086.88;;;11.07
48003;BMP280;33768;48.578;11.574;2022-12-29T14:58:02;96089.75;;;11.01
48003;BMP280;33768;48.578;11.574;2022-12-29T15:04:35;96101.31;;;10.94
48003;BMP280;33768;48.578;11.574;2022-12-29T15:07:40;96106.22;;;10.89
48003;BMP280;33768;48.578;11.574;2022-12-29T15:10:53;96093.22;;;10.82
48003;BMP280;33768;48.578;11.574;2022-12-29T15:13:58;96092.81;;;10.78
48003;BMP280;33768;48.578;11.574;2022-12-29T15:17:10;96107.94;;;10.79
48003;BMP280;33768;48.578;11.574;2022-12-29T15:20:30;96101.13;;;10.72
48003;BMP280;33768;48.578;11.574;2022-12-29T15:23:36;96102.00;;;10.67
48003;BMP280;33768;48.578;11.574;2022-12-29T15:26:44;96105.22;;;10.59
48003;BMP280;33768;48.578;11.574;2022-12-29T15:29:59;96093.47;;;10.51
48003;BMP280;33768;48.578;11.574;2022-12-29T15:33:21;96093.44;;;10.43
48003;BMP280;33768;48.578;11.574;2022-12-29T15:36:28;96084.63;;;10.37
48003;BMP280;33768;48.578;11.574;2022-12-29T15:39:33;96107.09;;;10.30
48003;BMP280;33768;48.578;11.574;2022-12-29T15:46:01;96096.81;;;10.03
48003;BMP280;33768;48.578;11.574;2022-12-29T15:49:13;96105.75;;;9.91
48003;BMP280;33768;48.578;11.574;2022-12-29T15:52:22;96103.03;;;9.78
48003;BMP280;33768;48.578;11.574;2022-12-29T15:55:35;96102.31;;;9.65
48003;BMP280;33768;48.578;11.574;2022-12-29T15:58:43;96100.34;;;9.53
48003;BMP280;33768;48.578;11.574;2022-12-29T16:01:51;96107.69;;;9.45
48003;BMP280;33768;48.578;11.574;2022-12-29T16:04:55;96103.16;;;9.35
48003;BMP280;33768;48.578;11.574;2022-12-29T16:08:00;96110.50;;;9.27
48003;BMP280;33768;48.578;11.574;2022-12-29T16:11:20;96105.03;;;9.14
48003;BMP280;33768;48.578;11.574;2022-12-29T16:14:33;96101.81;;;9.03
48003;BMP280;33768;48.578;11.574;2022-12-29T16:17:48;96096.97;;;8.96
48003;BMP280;33768;48.578;11.574;2022-12-29T16:20:53;96107.97;;;8.90
48003;BMP280;33768;48.578;11.574;2022-12-29T16:24:05;96114.72;;;8.84
48003;BMP280;33768;48.578;11.574;2022-12-29T16:27:22;96115.06;;;8.80
48003;BMP280;33768;48.578;11.574;2022-12-29T16:30:32;96122.03;;;8.76
48003;BMP280;33768;48.578;11.574;2022-12-29T16:33:39;96122.03;;;8.76
48003;BMP280;33768;48.578;11.574;2022-12-29T16:37:32;96118.91;;;8.72
48003;BMP280;33768;48.578;11.574;2022-12-29T16:40:38;96125.38;;;8.69
48003;BMP280;33768;48.578;11.574;2022-12-29T16:43:43;96122.66;;;8.69
48003;BMP280;33768;48.578;11.574;2022-12-29T16:50:17;96124.78;;;8.76
48003;BMP280;33768;48.578;11.574;2022-12-29T16:53:48;96118.28;;;8.79
48003;BMP280;33768;48.578;11.574;2022-12-29T16:56:53;96118.50;;;8.81
48003;BMP280;33768;48.578;11.574;2022-12-29T17:00:00;96121.66;;;8.85
48003;BMP280;33768;48.578;11.574;2022-12-29T17:03:05;96125.00;;;8.91
48003;BMP280;33768;48.578;11.574;2022-12-29T17:06:15;96126.69;;;8.94
48003;BMP280;33768;48.578;11.574;2022-12-29T17:09:20;96132.78;;;9.00
48003;BMP280;33768;48.578;11.574;2022-12-29T17:12:28;96125.66;;;9.09
48003;BMP280;33768;48.578;11.574;2022-12-29T17:15:32;96127.25;;;9.18
48003;BMP280;33768;48.578;11.574;2022-12-29T17:18:38;96137.72;;;9.27
48003;BMP280;33768;48.578;11.574;2022-12-29T17:21:43;96116.38;;;9.31
48003;BMP280;33768;48.578;11.574;2022-12-29T17:24:46;96123.50;;;9.34
48003;BMP280;33768;48.578;11.574;2022-12-29T17:27:55;96114.28;;;9.36
48003;BMP280;33768;48.578;11.574;2022-12-29T17:31:02;96118.47;;;9.37
48003;BMP280;33768;48.578;11.574;2022-12-29T17:34:07;96112.09;;;9.35
48003;BMP280;33768;48.578;11.574;2022-12-29T17:37:33;96120.03;;;9.33
48003;BMP280;33768;48.578;11.574;2022-12-29T17:40:38;96112.19;;;9.42
48003;BMP280;33768;48.578;11.574;2022-12-29T17:43:42;96112.91;;;9.43
48003;BMP280;33768;48.578;11.574;2022-12-29T17:46:47;96105.03;;;9.52
48003;BMP280;33768;48.578;11.574;2022-12-29T17:49:51;96106.31;;;9.51
48003;BMP280;33768;48.578;11.574;2022-12-29T17:52:57;96111.53;;;9.49
48003;BMP280;33768;48.578;11.574;2022-12-29T17:56:02;96117.41;;;9.53
48003;BMP280;33768;48.578;11.574;2022-12-29T17:59:11;96119.94;;;9.51
48003;BMP280;33768;48.578;11.574;2022-12-29T18:02:27;96117.53;;;9.48
48003;BMP280;33768;48.578;11.574;2022-12-29T18:05:32;96122.53;;;9.44
48003;BMP280;33768;48.578;11.574;2022-12-29T18:08:37;96115.22;;;9.39
48003;BMP280;33768;48.578;11.574;2022-12-29T18:11:42;96114.28;;;9.36
48003;BMP280;33768;48.578;11.574;2022-12-29T18:14:47;96111.25;;;9.40
48003;BMP280;33768;48.578;11.574;2022-12-29T18:18:00;96125.28;;;9.44
48003;BMP280;33768;48.578;11.574;2022-12-29T18:21:04;96120.56;;;9.44
48003;BMP280;33768;48.578;11.574;2022-12-29T18:24:13;96117.63;;;9.42
48003;BMP280;33768;48.578;11.574;2022-12-29T18:27:17;96114.59;;;9.33
48003;BMP280;33768;48.578;11.574;2022-12-29T18:30:22;96121.38;;;9.27
48003;BMP280;33768;48.578;11.574;2022-12-29T18:33:27;96124.75;;;9.20
48003;BMP280;33768;48.578;11.574;2022-12-29T18:36:32;96121.91;;;9.12
48003;BMP280;33768;48.578;11.574;2022-12-29T18:39:36;96118.31;;;9.04
48003;BMP280;33768;48.578;11.574;2022-12-29T18:42:40;96121.38;;;9.01
48003;BMP280;33768;48.578;11.574;2022-12-29T18:45:45;96130.06;;;9.00
48003;BMP280;33768;48.578;11.574;2022-12-29T18:48:50;96132.88;;;9.07
48003;BMP280;33768;48.578;11.574;2022-12-29T18:51:54;96132.88;;;9.07
48003;BMP280;33768;48.578;11.574;2022-12-29T18:54:58;96138.53;;;9.09
48003;BMP280;33768;48.578;11.574;2022-12-29T18:58:03;96129.03;;;9.15
48003;BMP280;33768;48.578;11.574;2022-12-29T19:01:20;96137.31;;;9.23
48003;BMP280;33768;48.578;11.574;2022-12-29T19:04:24;96137.50;;;9.25
48003;BMP280;33768;48.578;11.574;2022-12-29T19:07:28;96135.84;;;9.22
48003;BMP280;33768;48.578;11.574;2022-12-29T19:10:33;96141.59;;;9.18
48003;BMP280;33768;48.578;11.574;2022-12-29T19:13:37;96148.31;;;9.17
48003;BMP280;33768;48.578;11.574;2022-12-29T19:16:48;96147.78;;;9.19
48003;BMP280;33768;48.578;11.574;2022-12-29T19:19:52;96142.94;;;9.12
48003;BMP280;33768;48.578;11.574;2022-12-29T19:22:59;96147.03;;;9.05
48003;BMP280;33768;48.578;11.574;2022-12-29T19:26:03;96143.59;;;9.05
48003;BMP280;33768;48.578;11.574;2022-12-29T19:29:13;96143.38;;;9.03
48003;BMP280;33768;48.578;11.574;2022-12-29T19:32:18;96140.63;;;9.03
48003;BMP280;33768;48.578;11.574;2022-12-29T19:35:24;96148.50;;;9.06
48003;BMP280;33768;48.578;11.574;2022-12-29T19:38:29;96144.22;;;9.11
48003;BMP280;33768;48.578;11.574;2022-12-29T19:41:33;96139.72;;;9.13
48003;BMP280;33768;48.578;11.574;2022-12-29T19:44:37;96128.22;;;9.20
48003;BMP280;33768;48.578;11.574;2022-12-29T19:47:41;96139.72;;;9.26
48003;BMP280;33768;48.578;11.574;2022-12-29T19:50:46;96146.84;;;9.29
48003;BMP280;33768;48.578;11.574;2022-12-29T19:53:50;96142.88;;;9.30
48003;BMP280;33768;48.578;11.574;2022-12-29T19:56:54;96138.88;;;9.31